createdAt,value
2018-11-14T00:02:03.250Z,9.52
2018-11-14T00:04:30.657Z,10.60
2018-11-14T00:06:58.069Z,8.10
2018-11-14T00:09:25.540Z,10.52
2018-11-14T00:11:53.001Z,9.05
2018-11-14T00:14:20.718Z,11.20
2018-11-14T00:16:48.164Z,11.20
2018-11-14T00:19:15.651Z,9.40
2018-11-14T00:21:43.055Z,10.52
2018-11-14T00:24:10.543Z,9.52
2018-11-14T00:26:37.960Z,8.48
2018-11-14T00:29:05.405Z,9.32
2018-11-14T00:31:32.899Z,10.25
2018-11-14T00:34:00.318Z,10.32
2018-11-14T00:36:28.131Z,12.95
2018-11-14T00:38:55.535Z,9.57
2018-11-14T00:41:22.945Z,10.38
2018-11-14T00:43:50.347Z,10.30
2018-11-14T00:46:17.757Z,11.52
2018-11-14T00:48:45.194Z,12.43
2018-11-14T00:51:12.603Z,11.63
2018-11-14T00:53:40.191Z,9.70
2018-11-14T00:56:07.590Z,11.05
2018-11-14T00:58:34.990Z,10.05
2018-11-14T01:01:02.463Z,13.15
2018-11-14T01:03:29.887Z,11.25
2018-11-14T01:05:57.284Z,11.60
2018-11-14T01:08:25.118Z,11.05
2018-11-14T01:10:52.547Z,11.82
2018-11-14T01:13:20.013Z,9.93
2018-11-14T01:15:47.346Z,9.38
2018-11-14T01:18:14.752Z,11.52
2018-11-14T01:20:42.250Z,10.10
2018-11-14T01:23:09.680Z,10.02
2018-11-14T01:25:37.111Z,11.30
2018-11-14T01:28:04.517Z,10.20
2018-11-14T01:30:32.126Z,12.35
2018-11-14T01:32:59.569Z,10.85
2018-11-14T01:35:27.167Z,8.60
2018-11-14T01:37:54.592Z,9.00
2018-11-14T01:40:22.627Z,7.53
2018-11-14T01:42:50.046Z,8.73
2018-11-14T01:45:17.448Z,7.82
2018-11-14T01:47:44.900Z,9.43
2018-11-14T01:50:12.309Z,8.60
2018-11-14T01:52:39.701Z,8.98
2018-11-14T01:55:07.110Z,8.10
2018-11-14T01:57:34.514Z,8.43
2018-11-14T02:00:01.938Z,9.00
2018-11-14T02:02:29.345Z,8.93
2018-11-14T02:04:56.746Z,8.85
2018-11-14T02:07:24.317Z,10.02
2018-11-14T02:09:51.713Z,9.00
2018-11-14T02:12:19.117Z,7.95
2018-11-14T02:14:46.522Z,8.48
2018-11-14T02:17:13.963Z,9.13
2018-11-14T02:19:41.515Z,7.87
2018-11-14T02:22:08.915Z,7.97
2018-11-14T02:24:36.326Z,7.05
2018-11-14T02:27:04.394Z,7.75
2018-11-14T02:29:31.793Z,9.65
2018-11-14T02:31:59.195Z,9.07
2018-11-14T02:34:26.602Z,9.57
2018-11-14T02:36:54.014Z,8.40
2018-11-14T02:39:21.474Z,9.27
2018-11-14T02:41:48.960Z,8.65
2018-11-14T02:44:16.415Z,8.15
2018-11-14T02:46:43.858Z,8.25
2018-11-14T02:49:11.271Z,8.65
2018-11-14T02:51:38.754Z,9.10
2018-11-14T02:54:06.216Z,9.75
2018-11-14T02:56:33.669Z,10.18
2018-11-14T02:59:01.080Z,9.98
2018-11-14T03:01:28.489Z,10.35
2018-11-14T03:03:55.934Z,11.75
2018-11-14T03:06:23.512Z,13.60
2018-11-14T03:08:50.951Z,8.40
2018-11-14T03:11:18.385Z,9.25
2018-11-14T03:13:45.791Z,8.50
2018-11-14T03:16:13.220Z,10.27
2018-11-14T03:18:40.635Z,10.35
2018-11-14T03:21:08.023Z,9.20
2018-11-14T03:23:35.456Z,9.45
2018-11-14T03:26:02.858Z,11.35
2018-11-14T03:28:30.301Z,9.90
2018-11-14T03:30:57.717Z,8.45
2018-11-14T03:33:25.117Z,10.05
2018-11-14T03:35:52.544Z,9.77
2018-11-14T03:38:20.031Z,10.02
2018-11-14T03:40:47.467Z,11.93
2018-11-14T03:43:14.962Z,10.82
2018-11-14T03:45:42.401Z,11.50
2018-11-14T03:48:09.805Z,8.88
2018-11-14T03:50:37.240Z,10.32
2018-11-14T03:53:04.656Z,12.02
2018-11-14T03:55:32.063Z,8.70
2018-11-14T03:57:59.460Z,13.10
2018-11-14T04:00:26.881Z,9.82
2018-11-14T04:02:54.290Z,9.93
2018-11-14T04:05:21.697Z,11.20
2018-11-14T04:07:49.090Z,7.82
2018-11-14T04:10:16.501Z,10.57
2018-11-14T04:12:43.920Z,10.35
2018-11-14T04:15:11.361Z,12.35
2018-11-14T04:17:38.779Z,9.98
2018-11-14T04:20:06.810Z,11.27
2018-11-14T04:22:34.211Z,9.23
2018-11-14T04:25:01.892Z,9.75
2018-11-14T04:27:29.322Z,12.40
2018-11-14T04:29:56.832Z,11.18
2018-11-14T04:32:24.250Z,9.48
2018-11-14T04:34:51.690Z,12.07
2018-11-14T04:37:19.149Z,10.90
2018-11-14T04:39:47.426Z,11.23
2018-11-14T04:42:14.845Z,10.88
2018-11-14T04:44:42.324Z,9.52
2018-11-14T04:47:09.753Z,9.40
2018-11-14T04:49:37.329Z,8.73
2018-11-14T04:52:04.773Z,8.43
2018-11-14T04:54:32.283Z,11.40
2018-11-14T04:56:59.734Z,7.47
2018-11-14T04:59:27.161Z,10.40
2018-11-14T05:01:54.570Z,9.30
2018-11-14T05:04:22.020Z,9.40
2018-11-14T05:06:49.430Z,7.93
2018-11-14T05:09:16.883Z,10.38
2018-11-14T05:11:44.284Z,9.77
2018-11-14T05:14:11.713Z,9.35
2018-11-14T05:16:39.346Z,7.50
2018-11-14T05:19:06.846Z,6.90
2018-11-14T05:21:34.283Z,6.68
2018-11-14T05:24:01.696Z,7.15
2018-11-14T05:26:29.107Z,8.75
2018-11-14T05:28:56.647Z,6.82
2018-11-14T05:31:24.117Z,8.52
2018-11-14T05:33:51.539Z,7.45
2018-11-14T05:36:18.951Z,7.40
2018-11-14T05:38:46.367Z,6.18
2018-11-14T05:41:13.899Z,7.65
2018-11-14T05:43:41.322Z,7.37
2018-11-14T05:46:08.733Z,6.97
2018-11-14T05:48:36.151Z,6.62
2018-11-14T05:51:03.562Z,6.72
2018-11-14T05:53:31.006Z,8.40
2018-11-14T05:55:58.430Z,6.30
2018-11-14T05:58:25.902Z,6.72
2018-11-14T06:00:53.316Z,5.50
2018-11-14T06:03:20.727Z,6.87
2018-11-14T06:05:48.134Z,6.53
2018-11-14T06:08:15.534Z,6.50
2018-11-14T06:10:42.990Z,6.55
2018-11-14T06:13:10.445Z,5.90
2018-11-14T06:15:37.884Z,6.95
2018-11-14T06:18:05.286Z,8.25
2018-11-14T06:20:32.715Z,6.95
2018-11-14T06:23:00.127Z,9.00
2018-11-14T06:25:27.543Z,8.90
2018-11-14T06:27:55.599Z,10.05
2018-11-14T06:30:23.010Z,9.40
2018-11-14T06:32:50.557Z,7.82
2018-11-14T06:35:18.542Z,8.02
2018-11-14T06:37:45.981Z,10.77
2018-11-14T06:40:13.473Z,8.85
2018-11-14T06:42:40.906Z,7.30
2018-11-14T06:45:08.431Z,7.45
2018-11-14T06:47:35.858Z,8.65
2018-11-14T06:50:03.403Z,7.18
2018-11-14T06:52:30.775Z,7.40
2018-11-14T06:54:58.683Z,7.62
2018-11-14T06:57:26.098Z,7.22
2018-11-14T06:59:53.619Z,8.55
2018-11-14T07:02:27.317Z,9.13
2018-11-14T07:04:48.447Z,8.57
2018-11-14T07:07:15.872Z,11.07
2018-11-14T07:09:43.329Z,9.07
2018-11-14T07:12:10.900Z,8.65
2018-11-14T07:14:38.339Z,8.55
2018-11-14T07:17:05.756Z,7.70
2018-11-14T07:19:33.243Z,8.27
2018-11-14T07:22:00.641Z,9.38
2018-11-14T07:24:28.071Z,9.27
2018-11-14T07:26:55.628Z,8.82
2018-11-14T07:29:23.076Z,9.68
2018-11-14T07:31:50.481Z,7.18
2018-11-14T07:34:17.904Z,9.45
2018-11-14T07:36:45.346Z,7.93
2018-11-14T07:39:13.013Z,7.53
2018-11-14T07:41:40.458Z,11.52
2018-11-14T07:44:08.084Z,10.38
2018-11-14T07:46:35.488Z,7.85
2018-11-14T07:49:03.782Z,7.75
2018-11-14T07:51:31.108Z,9.07
2018-11-14T07:53:58.553Z,7.85
2018-11-14T07:56:26.112Z,8.95
2018-11-14T07:58:53.720Z,8.25
2018-11-14T08:01:21.416Z,8.52
2018-11-14T08:03:49.779Z,7.97
2018-11-14T08:06:17.255Z,7.35
2018-11-14T08:08:44.680Z,9.30
2018-11-14T08:11:12.099Z,9.10
2018-11-14T08:13:39.508Z,10.23
2018-11-14T08:16:07.223Z,12.75
2018-11-14T08:18:34.851Z,9.23
2018-11-14T08:21:02.285Z,9.18
2018-11-14T08:23:29.978Z,9.90
2018-11-14T08:25:57.409Z,8.88
2018-11-14T08:28:24.836Z,8.60
2018-11-14T08:30:52.473Z,7.78
2018-11-14T08:33:19.985Z,7.65
2018-11-14T08:35:48.011Z,7.22
2018-11-14T08:38:15.417Z,7.35
2018-11-14T08:40:42.967Z,8.48
2018-11-14T08:43:10.373Z,7.40
2018-11-14T08:45:37.845Z,6.40
2018-11-14T08:48:05.273Z,7.68
2018-11-14T08:50:32.680Z,9.32
2018-11-14T08:53:00.117Z,8.05
2018-11-14T08:55:28.557Z,9.63
2018-11-14T08:57:56.030Z,8.23
2018-11-14T09:00:23.447Z,8.90
2018-11-14T09:02:51.026Z,6.95
2018-11-14T09:05:19.654Z,9.32
2018-11-14T09:07:48.269Z,7.20
2018-11-14T09:10:15.633Z,7.43
2018-11-14T09:12:44.137Z,5.95
2018-11-14T09:15:11.957Z,8.60
2018-11-14T09:17:40.477Z,7.82
2018-11-14T09:20:07.990Z,8.43
2018-11-14T09:22:35.394Z,6.97
2018-11-14T09:25:03.905Z,10.23
2018-11-14T09:27:31.547Z,7.32
2018-11-14T09:29:58.941Z,6.97
2018-11-14T09:32:26.366Z,7.95
2018-11-14T09:34:53.826Z,6.90
2018-11-14T09:37:21.297Z,10.55
2018-11-14T09:39:50.071Z,7.55
2018-11-14T09:42:17.510Z,6.82
2018-11-14T09:44:44.922Z,7.75
2018-11-14T09:47:12.341Z,9.02
2018-11-14T09:49:39.725Z,8.90
2018-11-14T09:52:07.170Z,10.05
2018-11-14T09:54:34.561Z,8.20
2018-11-14T09:57:02.048Z,7.75
2018-11-14T09:59:29.470Z,9.15
2018-11-14T10:01:56.881Z,9.82
2018-11-14T10:04:24.339Z,9.95
2018-11-14T10:06:51.737Z,8.90
2018-11-14T10:09:19.286Z,8.32
2018-11-14T10:11:46.749Z,7.25
2018-11-14T10:14:14.179Z,6.28
2018-11-14T10:16:41.600Z,8.70
2018-11-14T10:19:09.088Z,8.02
2018-11-14T10:21:36.556Z,8.30
2018-11-14T10:24:04.031Z,18.15
2018-11-14T10:26:31.505Z,10.25
2018-11-14T10:28:58.994Z,7.40
2018-11-14T10:31:26.491Z,4.90
2018-11-14T10:33:54.219Z,7.18
2018-11-14T10:36:21.696Z,7.12
2018-11-14T10:38:49.104Z,7.40
2018-11-14T10:41:16.523Z,8.43
2018-11-14T10:43:43.925Z,7.28
2018-11-14T10:46:11.447Z,5.82
2018-11-14T10:48:39.835Z,7.22
2018-11-14T10:51:07.335Z,6.87
2018-11-14T10:53:34.681Z,6.12
2018-11-14T10:56:02.222Z,8.55
2018-11-14T10:58:29.665Z,5.87
2018-11-14T11:00:57.503Z,4.68
2018-11-14T11:03:25.149Z,4.30
2018-11-14T11:05:52.585Z,7.53
2018-11-14T11:08:34.942Z,5.78
2018-11-14T11:11:02.372Z,5.78
2018-11-14T11:13:29.820Z,5.72
2018-11-14T11:15:57.253Z,4.30
2018-11-14T11:18:24.697Z,5.60
2018-11-14T11:20:52.109Z,6.93
2018-11-14T11:23:19.552Z,5.15
2018-11-14T11:25:47.513Z,5.47
2018-11-14T11:28:14.962Z,7.53
2018-11-14T11:30:42.421Z,5.07
2018-11-14T11:33:09.905Z,6.43
2018-11-14T11:35:38.284Z,5.57
2018-11-14T11:38:05.725Z,6.68
2018-11-14T11:40:33.225Z,5.10
2018-11-14T11:43:00.696Z,5.30
2018-11-14T11:45:28.972Z,5.78
2018-11-14T11:47:56.385Z,5.80
2018-11-14T11:50:23.857Z,5.43
2018-11-14T11:52:51.249Z,4.28
2018-11-14T11:55:18.687Z,5.30
2018-11-14T11:57:46.097Z,5.80
2018-11-14T12:00:13.654Z,5.50
2018-11-14T12:02:41.041Z,4.80
2018-11-14T12:05:08.444Z,5.15
2018-11-14T12:07:35.892Z,4.80
2018-11-14T12:10:03.324Z,6.15
2018-11-14T12:12:30.743Z,4.55
2018-11-14T12:14:58.149Z,5.25
2018-11-14T12:17:25.609Z,4.68
2018-11-14T12:19:53.176Z,6.07
2018-11-14T12:22:20.585Z,5.43
2018-11-14T12:24:48.027Z,4.80
2018-11-14T12:27:15.491Z,5.93
2018-11-14T12:29:42.901Z,6.78
2018-11-14T12:32:10.296Z,5.20
2018-11-14T12:34:37.711Z,5.65
2018-11-14T12:37:05.115Z,6.00
2018-11-14T12:39:32.831Z,5.37
2018-11-14T12:42:00.290Z,7.03
2018-11-14T12:44:27.730Z,5.70
2018-11-14T12:46:55.140Z,7.97
2018-11-14T12:49:22.546Z,6.10
2018-11-14T12:51:49.975Z,6.87
2018-11-14T12:54:17.615Z,4.85
2018-11-14T12:56:45.071Z,6.87
2018-11-14T12:59:12.541Z,5.00
2018-11-14T13:01:39.964Z,5.57
2018-11-14T13:04:07.358Z,6.95
2018-11-14T13:06:34.809Z,5.47
2018-11-14T13:09:02.291Z,6.03
2018-11-14T13:11:29.701Z,9.95
2018-11-14T13:13:57.189Z,8.75
2018-11-14T13:16:24.670Z,8.20
2018-11-14T13:18:52.077Z,7.18
2018-11-14T13:21:19.520Z,6.00
2018-11-14T13:23:47.044Z,6.12
2018-11-14T13:26:14.556Z,4.50
2018-11-14T13:28:41.964Z,6.93
2018-11-14T13:31:09.394Z,6.55
2018-11-14T13:33:37.058Z,4.62
2018-11-14T13:36:05.045Z,5.20
2018-11-14T13:38:32.509Z,6.32
2018-11-14T13:41:00.160Z,8.13
2018-11-14T13:43:27.932Z,4.60
2018-11-14T13:45:55.482Z,5.05
2018-11-14T13:48:22.940Z,7.03
2018-11-14T13:50:50.674Z,6.43
2018-11-14T13:53:17.842Z,3.97
2018-11-14T13:55:45.257Z,5.93
2018-11-14T13:58:13.885Z,8.07
2018-11-14T14:00:41.291Z,5.93
2018-11-14T14:03:08.691Z,5.30
2018-11-14T14:05:36.280Z,5.53
2018-11-14T14:08:03.855Z,5.97
2018-11-14T14:10:31.311Z,6.10
2018-11-14T14:12:58.710Z,5.10
2018-11-14T14:15:26.123Z,5.60
2018-11-14T14:17:53.514Z,5.80
2018-11-14T14:20:21.304Z,5.97
2018-11-14T14:22:48.809Z,6.80
2018-11-14T14:25:16.260Z,4.78
2018-11-14T14:27:43.669Z,7.47
2018-11-14T14:30:11.197Z,7.15
2018-11-14T14:32:38.615Z,6.80
2018-11-14T14:35:06.084Z,7.50
2018-11-14T14:37:33.494Z,5.37
2018-11-14T14:40:01.040Z,6.20
2018-11-14T14:42:28.460Z,7.35
2018-11-14T14:44:55.913Z,6.60
2018-11-14T14:47:23.461Z,6.00
2018-11-14T14:49:50.905Z,7.45
2018-11-14T14:52:18.338Z,7.87
2018-11-14T14:54:45.744Z,5.45
2018-11-14T14:57:13.166Z,6.20
2018-11-14T14:59:40.609Z,4.70
2018-11-14T15:02:08.189Z,6.72
2018-11-14T15:04:35.657Z,5.72
2018-11-14T15:07:03.089Z,5.32
2018-11-14T15:09:30.617Z,7.45
2018-11-14T15:11:58.802Z,5.50
2018-11-14T15:14:26.276Z,6.20
2018-11-14T15:16:54.530Z,7.95
2018-11-14T15:19:21.990Z,6.18
2018-11-14T15:21:49.499Z,6.05
2018-11-14T15:24:16.900Z,5.05
2018-11-14T15:26:44.302Z,6.10
2018-11-14T15:29:11.742Z,6.47
2018-11-14T15:31:39.151Z,5.97
2018-11-14T15:34:06.584Z,8.65
2018-11-14T15:36:34.004Z,6.28
2018-11-14T15:39:01.438Z,10.80
2018-11-14T15:41:28.830Z,6.78
2018-11-14T15:43:56.257Z,5.50
2018-11-14T15:46:23.670Z,8.52
2018-11-14T15:48:51.075Z,5.72
2018-11-14T15:51:18.481Z,5.50
2018-11-14T15:53:45.871Z,6.20
2018-11-14T15:56:13.309Z,5.90
2018-11-14T15:58:40.717Z,5.95
2018-11-14T16:01:08.142Z,6.20
2018-11-14T16:03:35.701Z,7.10
2018-11-14T16:06:03.107Z,6.50
2018-11-14T16:08:30.575Z,5.90
2018-11-14T16:10:58.036Z,5.20
2018-11-14T16:13:25.518Z,5.75
2018-11-14T16:15:53.126Z,5.85
2018-11-14T16:18:20.547Z,4.85
2018-11-14T16:20:48.000Z,5.37
2018-11-14T16:23:15.404Z,5.55
2018-11-14T16:25:43.417Z,5.80
2018-11-14T16:28:10.886Z,5.87
2018-11-14T16:30:38.266Z,5.53
2018-11-14T16:33:05.698Z,7.12
2018-11-14T16:35:34.036Z,6.10
2018-11-14T16:38:01.578Z,6.70
2018-11-14T16:40:28.950Z,8.23
2018-11-14T16:42:56.396Z,6.07
2018-11-14T16:45:23.854Z,6.75
2018-11-14T16:47:51.337Z,6.68
2018-11-14T16:50:18.780Z,4.18
2018-11-14T16:52:46.262Z,4.97
2018-11-14T16:55:13.706Z,6.32
2018-11-14T16:57:41.152Z,5.28
2018-11-14T17:00:08.554Z,5.70
2018-11-14T17:02:35.941Z,4.80
2018-11-14T17:05:03.520Z,6.00
2018-11-14T17:07:30.967Z,4.68
2018-11-14T17:09:59.260Z,5.22
2018-11-14T17:12:26.789Z,6.57
2018-11-14T17:14:54.214Z,4.53
2018-11-14T17:17:21.753Z,5.53
2018-11-14T17:19:49.191Z,5.68
2018-11-14T17:22:16.607Z,4.57
2018-11-14T17:24:44.002Z,5.78
2018-11-14T17:27:11.789Z,7.05
2018-11-14T17:29:39.233Z,6.28
2018-11-14T17:32:06.630Z,5.07
2018-11-14T17:34:34.181Z,5.32
2018-11-14T17:37:01.657Z,6.62
2018-11-14T17:39:29.065Z,5.45
2018-11-14T17:41:56.733Z,5.78
2018-11-14T17:44:24.090Z,6.00
2018-11-14T17:46:51.680Z,4.55
2018-11-14T17:49:20.166Z,6.65
2018-11-14T17:51:47.559Z,5.15
2018-11-14T17:54:14.963Z,5.62
2018-11-14T17:56:42.379Z,5.75
2018-11-14T17:59:09.793Z,4.60
2018-11-14T18:01:37.218Z,5.70
2018-11-14T18:04:04.624Z,4.87
2018-11-14T18:06:32.033Z,5.70
2018-11-14T18:08:59.488Z,5.30
2018-11-14T18:11:27.048Z,5.70
2018-11-14T18:13:54.492Z,4.70
2018-11-14T18:16:21.898Z,5.55
2018-11-14T18:18:49.501Z,4.07
2018-11-14T18:21:16.939Z,6.28
2018-11-14T18:23:44.352Z,5.75
2018-11-14T18:26:11.788Z,5.00
2018-11-14T18:28:39.218Z,5.22
2018-11-14T18:31:06.723Z,5.40
2018-11-14T18:33:34.172Z,4.93
2018-11-14T18:36:01.583Z,5.87
2018-11-14T18:38:29.026Z,4.87
2018-11-14T18:40:56.484Z,7.05
2018-11-14T18:43:24.223Z,5.72
2018-11-14T18:45:51.669Z,6.57
2018-11-14T18:48:19.460Z,5.30
2018-11-14T18:50:46.911Z,5.87
2018-11-14T18:53:14.334Z,6.93
2018-11-14T18:55:41.865Z,6.18
2018-11-14T18:58:09.269Z,4.53
2018-11-14T19:00:36.703Z,6.35
2018-11-14T19:03:04.135Z,5.95
2018-11-14T19:05:31.821Z,8.18
2018-11-14T19:08:00.168Z,5.62
2018-11-14T19:10:27.592Z,6.90
2018-11-14T19:12:55.103Z,5.90
2018-11-14T19:15:22.572Z,8.52
2018-11-14T19:17:50.029Z,7.60
2018-11-14T19:20:17.462Z,7.72
2018-11-14T19:22:44.879Z,8.77
2018-11-14T19:25:12.311Z,6.55
2018-11-14T19:27:39.725Z,7.12
2018-11-14T19:30:07.234Z,6.55
2018-11-14T19:32:34.689Z,6.72
2018-11-14T19:35:02.201Z,6.75
2018-11-14T19:37:29.644Z,8.15
2018-11-14T19:39:57.078Z,8.25
2018-11-14T19:42:24.509Z,8.80
2018-11-14T19:44:51.938Z,9.38
2018-11-14T19:47:19.421Z,8.15
2018-11-14T19:49:46.861Z,7.68
2018-11-14T19:52:14.279Z,8.23
2018-11-14T19:54:41.719Z,8.98
2018-11-14T19:57:09.153Z,6.72
2018-11-14T19:59:36.569Z,9.13
2018-11-14T20:02:04.025Z,7.37
2018-11-14T20:04:31.446Z,10.35
2018-11-14T20:06:59.229Z,9.27
2018-11-14T20:09:27.681Z,9.35
2018-11-14T20:11:55.112Z,7.45
2018-11-14T20:14:22.776Z,7.35
2018-11-14T20:16:50.313Z,7.60
2018-11-14T20:19:17.719Z,6.68
2018-11-14T20:21:45.197Z,6.87
2018-11-14T20:24:12.610Z,8.48
2018-11-14T20:26:40.695Z,6.57
2018-11-14T20:29:08.235Z,7.68
2018-11-14T20:31:35.881Z,8.18
2018-11-14T20:34:04.031Z,7.30
2018-11-14T20:36:31.466Z,7.93
2018-11-14T20:38:58.878Z,7.00
2018-11-14T20:41:26.347Z,9.30
2018-11-14T20:43:53.857Z,8.45
2018-11-14T20:46:21.299Z,11.50
2018-11-14T20:48:48.751Z,10.05
2018-11-14T20:51:16.168Z,12.13
2018-11-14T20:53:43.679Z,9.93
2018-11-14T20:56:11.127Z,10.80
2018-11-14T20:58:38.817Z,11.07
2018-11-14T21:01:06.350Z,11.90
2018-11-14T21:03:33.897Z,10.68
2018-11-14T21:06:01.309Z,10.30
2018-11-14T21:08:28.748Z,8.70
2018-11-14T21:10:56.176Z,9.27
2018-11-14T21:13:23.637Z,9.82
2018-11-14T21:15:51.087Z,8.05
2018-11-14T21:18:18.633Z,11.18
2018-11-14T21:20:46.029Z,8.63
2018-11-14T21:23:13.480Z,6.78
2018-11-14T21:25:40.921Z,7.22
2018-11-14T21:28:08.334Z,7.68
2018-11-14T21:30:35.787Z,7.47
2018-11-14T21:33:03.214Z,8.52
2018-11-14T21:35:31.399Z,9.55
2018-11-14T21:37:58.911Z,9.68
2018-11-14T21:40:26.468Z,7.50
2018-11-14T21:42:54.010Z,10.52
2018-11-14T21:45:21.489Z,8.27
2018-11-14T21:47:48.893Z,8.13
2018-11-14T21:50:16.310Z,6.60
2018-11-14T21:52:43.733Z,8.52
2018-11-14T21:55:11.157Z,8.13
2018-11-14T21:57:39.578Z,8.52
2018-11-14T22:00:07.001Z,8.07
2018-11-14T22:02:34.467Z,8.65
2018-11-14T22:05:01.959Z,7.22
2018-11-14T22:07:29.384Z,8.80
2018-11-14T22:09:56.864Z,7.95
2018-11-14T22:12:24.300Z,8.25
2018-11-14T22:14:51.734Z,8.25
2018-11-14T22:17:19.143Z,6.62
2018-11-14T22:19:47.308Z,6.25
2018-11-14T22:22:14.690Z,6.55
2018-11-14T22:24:42.282Z,7.70
2018-11-14T22:27:09.733Z,9.85
2018-11-14T22:29:37.198Z,7.15
2018-11-14T22:32:04.678Z,8.40
2018-11-14T22:34:32.169Z,7.47
2018-11-14T22:36:59.543Z,9.77
2018-11-14T22:39:27.058Z,8.50
2018-11-14T22:41:54.478Z,9.98
2018-11-14T22:44:22.650Z,8.82
2018-11-14T22:46:50.186Z,9.43
2018-11-14T22:49:17.655Z,7.72
2018-11-14T22:51:45.062Z,9.30
2018-11-14T22:54:12.495Z,9.88
2018-11-14T22:56:40.644Z,10.02
2018-11-14T22:59:08.033Z,9.52
2018-11-14T23:01:35.454Z,8.95
2018-11-14T23:04:02.869Z,10.35
2018-11-14T23:06:30.613Z,9.73
2018-11-14T23:08:58.009Z,9.50
2018-11-14T23:11:25.422Z,8.00
2018-11-14T23:13:52.818Z,9.65
2018-11-14T23:16:20.238Z,10.18
2018-11-14T23:18:47.674Z,11.93
2018-11-14T23:21:15.073Z,9.30
2018-11-14T23:23:42.508Z,8.48
2018-11-14T23:26:09.965Z,9.90
2018-11-14T23:28:37.394Z,9.13
2018-11-14T23:31:05.076Z,9.20
2018-11-14T23:33:32.957Z,11.15
2018-11-14T23:36:00.585Z,9.20
2018-11-14T23:38:28.031Z,9.93
2018-11-14T23:40:55.458Z,11.70
2018-11-14T23:43:22.899Z,9.80
2018-11-14T23:45:50.302Z,9.63
2018-11-14T23:48:17.718Z,11.02
2018-11-14T23:50:45.139Z,11.68
2018-11-14T23:53:12.567Z,9.02
2018-11-14T23:55:40.063Z,9.20
2018-11-14T23:58:07.471Z,8.25
